Time;durP1;ratioP1;P1;durP2;ratioP2;P2;SDS_P1;SDS_P2;PMS_P1;PMS_P2;Temp;Humidity;BMP_temperature;BMP_pressure;BME280_temperature;BME280_humidity;BME280_pressure;Samples;Min_cycle;Max_cycle;Signal;HPM_P1;HPM_P2
2022/01/25 00:10:12;;;;;;;63.03;29.42;;;;;;;;;;5053805;28;20094;-76
2022/01/25 00:16:03;;;;;;;65.40;33.08;;;;;;;;;;5053860;28;20044;-74
2022/01/25 00:26:26;;;;;;;61.35;30.88;;;5.10;99.90;;;;;;5054099;28;20453;-74
2022/01/25 00:29:26;;;;;;;71.53;33.60;;;;;;;;;;5053760;28;20102;-72
2022/01/25 00:31:40;;;;;;;65.07;31.58;;;5.20;99.90;;;;;;5053127;28;20048;-74
2022/01/25 00:34:06;;;;;;;62.13;29.98;;;;;;;;;;5037061;28;20093;-73
2022/01/25 00:36:33;;;;;;;66.72;32.50;;;;;;;;;;5061320;28;20421;-74
2022/01/25 00:38:59;;;;;;;64.80;32.40;;;;;;;;;;5071516;28;20070;-74
2022/01/25 00:41:25;;;;;;;62.22;31.02;;;;;;;;;;5073590;28;20063;-74
2022/01/25 00:43:51;;;;;;;65.95;30.58;;;;;;;;;;5056797;28;20036;-74
2022/01/25 00:46:20;;;;;;;65.97;32.03;;;;;;;;;;5073019;28;20053;-75
2022/01/25 00:48:49;;;;;;;63.65;31.17;;;;;;;;;;5072997;28;20051;-77
2022/01/25 00:51:57;;;;;;;68.18;32.90;;;4.90;99.90;;;;;;5073350;28;20048;-74
2022/01/25 00:56:44;;;;;;;64.05;32.08;;;;;;;;;;5073765;28;20560;-74
2022/01/25 00:59:12;;;;;;;63.42;32.55;;;5.00;99.90;;;;;;5073278;28;20052;-75
2022/01/25 01:01:39;;;;;;;65.60;32.15;;;;;;;;;;5073658;28;20082;-75
2022/01/25 01:04:06;;;;;;;61.67;31.13;;;4.80;99.90;;;;;;5056684;28;20497;-74
2022/01/25 01:06:32;;;;;;;66.35;33.88;;;;;;;;;;5073367;28;20417;-74
2022/01/25 01:08:58;;;;;;;61.55;31.48;;;;;;;;;;5073505;28;20558;-74
2022/01/25 01:11:35;;;;;;;65.13;32.42;;;4.90;99.90;;;;;;5073274;28;20040;-74
2022/01/25 01:33:19;;;;;;;66.57;32.65;;;4.90;99.90;;;;;;5076938;28;20044;-74
2022/01/25 01:43:38;;;;;;;59.45;30.50;;;;;;;;;;5076994;28;20558;-74
2022/01/25 01:48:53;;;;;;;66.38;32.25;;;4.80;99.90;;;;;;5076532;28;20055;-76
2022/01/25 01:51:35;;;;;;;64.75;31.02;;;4.90;99.90;;;;;;5076512;28;20523;-75
2022/01/25 01:54:03;;;;;;;67.00;33.53;;;;;;;;;;5076878;28;20485;-74
2022/01/25 01:56:29;;;;;;;67.95;32.20;;;;;;;;;;5076676;28;20044;-74
2022/01/25 01:58:57;;;;;;;64.72;32.58;;;4.80;99.90;;;;;;5059640;28;20039;-74
2022/01/25 02:01:25;;;;;;;65.22;32.92;;;4.90;99.90;;;;;;5076589;28;20559;-74
2022/01/25 02:03:51;;;;;;;58.13;31.25;;;;;;;;;;5076283;28;20097;-74
2022/01/25 02:06:18;;;;;;;64.00;33.95;;;;;;;;;;5059673;28;20048;-74
2022/01/25 02:08:43;;;;;;;68.40;31.58;;;;;;;;;;5076323;28;20036;-74
2022/01/25 02:11:10;;;;;;;62.22;31.92;;;;;;;;;;5059105;28;20040;-74
2022/01/25 02:13:41;;;;;;;68.10;35.25;;;;;;;;;;5076164;28;20036;-76
2022/01/25 02:16:10;;;;;;;66.35;31.83;;;;;;;;;;5076406;28;20128;-75
2022/01/25 02:24:05;;;;;;;66.93;32.13;;;;;;;;;;5076249;28;20144;-74
2022/01/25 02:26:31;;;;;;;62.92;32.30;;;;;;;;;;5074923;28;20044;-74
2022/01/25 02:28:57;;;;;;;70.53;33.45;;;;;;;;;;5075902;28;20505;-74
2022/01/25 02:31:23;;;;;;;67.20;32.58;;;;;;;;;;5058908;28;20083;-75
2022/01/25 02:33:49;;;;;;;65.25;31.83;;;;;;;;;;5075757;28;20497;-74
2022/01/25 02:36:27;;;;;;;64.25;32.88;;;5.10;99.90;;;;;;5076006;28;20073;-76
2022/01/25 02:38:53;;;;;;;66.57;32.38;;;;;;;;;;5076063;28;20043;-73
2022/01/25 02:41:19;;;;;;;64.07;30.23;;;;;;;;;;5075567;28;20673;-74
2022/01/25 02:43:47;;;;;;;66.22;32.60;;;;;;;;;;5075804;28;20083;-74
2022/01/25 02:48:51;;;;;;;69.25;34.38;;;;;;;;;;5075830;28;20405;-74
2022/01/25 02:51:17;;;;;;;65.30;31.00;;;4.90;99.90;;;;;;5075320;28;20048;-74
2022/01/25 02:53:43;;;;;;;63.80;30.88;;;;;;;;;;5075354;28;20405;-74
2022/01/25 02:56:08;;;;;;;67.47;32.80;;;4.90;99.90;;;;;;5058729;28;20480;-74
2022/01/25 02:58:34;;;;;;;64.10;32.15;;;;;;;;;;5075549;28;20043;-74
2022/01/25 03:01:00;;;;;;;67.43;31.50;;;;;;;;;;5075366;28;20048;-74
2022/01/25 03:03:26;;;;;;;69.85;33.28;;;;;;;;;;5058582;28;20535;-74
2022/01/25 03:05:52;;;;;;;66.35;31.58;;;;;;;;;;5058572;28;20094;-74
2022/01/25 03:08:18;;;;;;;63.08;32.28;;;;;;;;;;5075305;28;20043;-72
2022/01/25 03:10:47;;;;;;;63.53;30.30;;;;;;;;;;5074816;28;20079;-74
2022/01/25 03:13:18;;;;;;;73.30;35.33;;;;;;;;;;5075099;28;20040;-74
2022/01/25 03:18:25;;;;;;;67.03;31.67;;;4.80;99.90;;;;;;5075158;28;20039;-74
2022/01/25 03:20:59;;;;;;;63.78;32.40;;;;;;;;;;5057806;28;20120;-74
2022/01/25 03:23:28;;;;;;;63.50;31.88;;;;;;;;;;5074868;28;20069;-74
2022/01/25 03:25:54;;;;;;;68.68;32.22;;;;;;;;;;5075291;28;20125;-74
2022/01/25 03:28:20;;;;;;;67.25;30.70;;;;;;;;;;5058469;28;20067;-76
2022/01/25 03:30:47;;;;;;;60.67;32.40;;;;;;;;;;5057556;28;20135;-74
2022/01/25 03:33:13;;;;;;;67.78;33.08;;;;;;;;;;5074666;28;20040;-74
2022/01/25 03:35:39;;;;;;;69.82;34.00;;;;;;;;;;5074617;28;20661;-74
2022/01/25 03:38:05;;;;;;;61.10;30.85;;;;;;;;;;5057574;28;20127;-74
2022/01/25 03:40:31;;;;;;;70.18;33.65;;;;;;;;;;5085564;23;20142;-68
2022/01/25 03:42:59;;;;;;;69.95;32.72;;;;;;;;;;5094321;28;20036;-68
2022/01/25 03:45:31;;;;;;;67.28;31.73;;;;;;;;;;5094553;28;20044;-69
2022/01/25 03:49:49;;;;;;;64.15;32.97;;;;;;;;;;5094327;28;20071;-68
2022/01/25 03:50:49;;;;;;;66.53;33.35;;;4.80;99.90;;;;;;5093892;28;20139;-68
2022/01/25 03:53:17;;;;;;;71.97;33.45;;;4.90;99.90;;;;;;5112546;28;20042;-71
2022/01/25 03:55:43;;;;;;;71.95;33.58;;;;;;;;;;5112505;28;20067;-67
2022/01/25 03:58:09;;;;;;;66.40;32.92;;;4.90;99.90;;;;;;5112524;28;20456;-68
2022/01/25 04:00:36;;;;;;;70.90;33.65;;;;;;;;;;5093781;28;20067;-68
2022/01/25 04:03:07;;;;;;;70.68;33.40;;;;;;;;;;5094154;28;20040;-67
2022/01/25 04:05:37;;;;;;;72.13;34.33;;;4.80;99.90;;;;;;5094354;28;20055;-68
2022/01/25 04:08:03;;;;;;;66.18;32.25;;;4.80;99.90;;;;;;5094670;28;20031;-67
2022/01/25 04:10:29;;;;;;;69.60;33.83;;;;;;;;;;5093968;28;20503;-68
2022/01/25 04:12:55;;;;;;;60.83;31.77;;;4.80;99.90;;;;;;5094921;28;20031;-68
2022/01/25 04:15:21;;;;;;;65.13;32.20;;;4.80;99.90;;;;;;5111981;28;20027;-68
2022/01/25 04:17:53;;;;;;;66.65;32.47;;;;;;;;;;5094211;28;20047;-69
2022/01/25 04:25:29;;;;;;;69.20;33.95;;;;;;;;;;5112535;28;20484;-70
2022/01/25 04:27:55;;;;;;;68.95;33.15;;;;;;;;;;5112420;28;20062;-71
2022/01/25 04:30:21;;;;;;;68.00;32.45;;;;;;;;;;5111464;28;20554;-70
2022/01/25 04:33:03;;;;;;;71.18;32.22;;;;;;;;;;5093747;28;20039;-71
2022/01/25 05:01:37;;;;;;;68.28;32.83;;;5.00;99.90;;;;;;5098491;28;20043;-67
2022/01/25 05:04:11;;;;;;;74.85;33.88;;;4.80;99.90;;;;;;5116285;28;20066;-67
2022/01/25 05:06:36;;;;;;;67.35;33.13;;;5.00;99.90;;;;;;5097693;28;20118;-68
2022/01/25 05:09:12;;;;;;;66.72;32.25;;;4.90;99.90;;;;;;5115478;28;20123;-68
2022/01/25 05:11:42;;;;;;;71.47;35.50;;;;;;;;;;5115491;28;20463;-70
2022/01/25 05:14:22;;;;;;;75.60;34.17;;;;;;;;;;5097210;28;20082;-68
2022/01/25 05:16:51;;;;;;;70.15;32.28;;;;;;;;;;5115662;28;20493;-72
2022/01/25 05:24:49;;;;;;;68.18;32.78;;;4.90;99.90;;;;;;5052482;28;20091;-68
2022/01/25 05:27:17;;;;;;;75.88;34.60;;;;;;;;;;5036065;28;20083;-68
2022/01/25 05:29:43;;;;;;;73.63;34.20;;;;;;;;;;5064689;28;20135;-69
2022/01/25 05:32:09;;;;;;;69.65;33.60;;;;;;;;;;5115234;28;20119;-70
2022/01/25 05:34:35;;;;;;;65.72;31.95;;;;;;;;;;5080341;28;20071;-71
2022/01/25 05:37:03;;;;;;;76.03;34.95;;;;;;;;;;5097230;28;20043;-71
2022/01/25 05:39:34;;;;;;;72.50;34.55;;;;;;;;;;5096804;28;20039;-68
2022/01/25 05:47:31;;;;;;;73.30;34.50;;;;;;;;;;5096833;28;20126;-68
2022/01/25 05:49:58;;;;;;;67.60;34.00;;;4.70;99.90;;;;;;5114846;28;20051;-67
2022/01/25 05:52:26;;;;;;;70.10;34.80;;;;;;;;;;5096599;28;20046;-70
2022/01/25 05:54:52;;;;;;;72.88;35.85;;;;;;;;;;5096716;28;20051;-68
2022/01/25 05:57:18;;;;;;;73.75;34.85;;;;;;;;;;5114749;28;20389;-68
2022/01/25 05:59:44;;;;;;;77.95;34.38;;;;;;;;;;5096348;28;20525;-67
2022/01/25 06:02:10;;;;;;;72.22;32.90;;;4.90;99.90;;;;;;5096126;28;20409;-68
2022/01/25 06:04:36;;;;;;;76.70;36.55;;;;;;;;;;5114716;28;20073;-67
2022/01/25 06:07:02;;;;;;;72.07;34.38;;;;;;;;;;5114652;28;20504;-67
2022/01/25 06:09:28;;;;;;;77.85;36.22;;;;;;;;;;5096114;28;20118;-67
2022/01/25 06:11:54;;;;;;;69.82;32.30;;;4.60;99.90;;;;;;5114329;28;20123;-67
2022/01/25 06:14:21;;;;;;;72.97;34.58;;;;;;;;;;5096266;28;20046;-67
2022/01/25 06:16:46;;;;;;;73.57;33.95;;;4.80;99.90;;;;;;5096232;28;20096;-68
2022/01/25 06:19:12;;;;;;;67.88;32.88;;;;;;;;;;5096270;28;20031;-67
2022/01/25 06:21:38;;;;;;;75.43;36.20;;;;;;;;;;5096043;28;20032;-67
2022/01/25 06:24:04;;;;;;;73.53;35.28;;;;;;;;;;5095998;28;20043;-68
2022/01/25 06:26:30;;;;;;;77.70;35.75;;;4.80;99.90;;;;;;5114239;28;20039;-68
2022/01/25 06:28:56;;;;;;;71.40;33.40;;;;;;;;;;5095705;28;20065;-71
2022/01/25 06:31:22;;;;;;;73.88;34.42;;;;;;;;;;5095735;28;20470;-68
2022/01/25 06:33:48;;;;;;;73.25;34.15;;;;;;;;;;5096053;28;20039;-67
2022/01/25 06:36:14;;;;;;;71.50;34.88;;;;;;;;;;5114218;28;20035;-67
2022/01/25 06:38:40;;;;;;;71.10;33.03;;;;;;;;;;5114017;28;20035;-68
2022/01/25 06:41:09;;;;;;;70.65;33.40;;;;;;;;;;5095507;28;20043;-69
2022/01/25 06:43:35;;;;;;;73.05;35.80;;;;;;;;;;5095394;28;20046;-72
2022/01/25 06:46:03;;;;;;;71.50;33.78;;;;;;;;;;5082392;28;20044;-66
2022/01/25 06:48:29;;;;;;;69.55;34.67;;;;;;;;;;5087927;28;20047;-68
2022/01/25 06:50:55;;;;;;;73.72;33.75;;;;;;;;;;5110196;28;20062;-68
2022/01/25 06:53:21;;;;;;;71.30;34.60;;;;;;;;;;5110592;28;20274;-68
2022/01/25 06:55:47;;;;;;;76.45;34.30;;;;;;;;;;5110449;28;20556;-67
2022/01/25 06:58:13;;;;;;;72.35;33.40;;;;;;;;;;5092092;28;20092;-68
2022/01/25 07:00:39;;;;;;;74.00;34.67;;;4.80;99.90;;;;;;5091571;28;20044;-68
2022/01/25 07:03:05;;;;;;;75.25;34.58;;;;;;;;;;5110625;28;20043;-70
2022/01/25 07:05:32;;;;;;;69.57;34.35;;;;;;;;;;5091889;28;20130;-67
2022/01/25 07:07:57;;;;;;;71.63;35.30;;;4.80;99.90;;;;;;5091767;28;20035;-68
2022/01/25 07:10:24;;;;;;;74.75;33.85;;;;;;;;;;5091670;28;20039;-68
2022/01/25 07:12:50;;;;;;;79.30;35.40;;;4.70;99.90;;;;;;5109337;28;20039;-68
2022/01/25 07:15:16;;;;;;;68.60;33.30;;;;;;;;;;5110196;28;20602;-68
2022/01/25 07:17:42;;;;;;;79.03;37.13;;;;;;;;;;5091941;28;20094;-68
2022/01/25 07:20:09;;;;;;;70.57;34.78;;;;;;;;;;5091540;28;20585;-68
2022/01/25 07:22:35;;;;;;;71.03;34.05;;;;;;;;;;5109962;28;20489;-67
2022/01/25 07:25:01;;;;;;;75.22;36.00;;;;;;;;;;5091609;28;20411;-66
2022/01/25 07:27:27;;;;;;;80.38;36.10;;;4.80;99.90;;;;;;5091595;28;20077;-68
2022/01/25 07:29:53;;;;;;;73.05;33.20;;;;;;;;;;5091206;28;20044;-68
2022/01/25 07:32:19;;;;;;;70.88;33.58;;;;;;;;;;5109715;28;20042;-67
2022/01/25 07:34:45;;;;;;;70.93;33.33;;;;;;;;;;5079674;28;20031;-67
2022/01/25 07:37:10;;;;;;;79.68;34.72;;;4.70;99.90;;;;;;5084655;28;20062;-67
2022/01/25 07:39:36;;;;;;;70.65;34.40;;;;;;;;;;5091142;28;20039;-73
2022/01/25 07:42:02;;;;;;;66.05;32.97;;;;;;;;;;5091427;28;20055;-70
2022/01/25 07:44:31;;;;;;;73.95;33.92;;;;;;;;;;5091371;28;20043;-72
2022/01/25 07:46:58;;;;;;;75.85;33.38;;;;;;;;;;5074381;28;20055;-70
2022/01/25 07:49:27;;;;;;;74.75;35.42;;;;;;;;;;5085378;28;20097;-70
2022/01/25 07:51:54;;;;;;;77.00;34.88;;;;;;;;;;5074840;28;20050;-69
2022/01/25 07:54:20;;;;;;;76.78;34.40;;;;;;;;;;5073716;28;20028;-68
2022/01/25 07:56:46;;;;;;;75.45;35.25;;;;;;;;;;5072884;28;20048;-70
2022/01/25 07:59:13;;;;;;;74.00;33.50;;;;;;;;;;5080429;28;20036;-69
2022/01/25 08:01:39;;;;;;;70.25;34.38;;;;;;;;;;5072660;28;20443;-68
2022/01/25 08:04:05;;;;;;;69.10;32.55;;;;;;;;;;5092911;28;20040;-69
2022/01/25 08:06:31;;;;;;;70.20;32.70;;;;;;;;;;5090588;28;20089;-67
2022/01/25 08:08:58;;;;;;;72.13;34.40;;;4.80;99.90;;;;;;5090731;28;20051;-67
2022/01/25 08:11:24;;;;;;;69.50;34.83;;;;;;;;;;5108775;28;20799;-68
2022/01/25 08:13:52;;;;;;;75.88;34.70;;;;;;;;;;5078136;28;20071;-70
2022/01/25 08:16:18;;;;;;;67.20;32.85;;;;;;;;;;5078584;28;20036;-68
2022/01/25 08:18:44;;;;;;;77.80;35.17;;;;;;;;;;5087592;28;20047;-67
2022/01/25 08:21:10;;;;;;;72.80;35.13;;;;;;;;;;5090341;28;20140;-67
2022/01/25 08:23:36;;;;;;;71.97;33.22;;;;;;;;;;5090601;28;20082;-68
2022/01/25 08:26:03;;;;;;;73.07;36.13;;;;;;;;;;5108925;28;20062;-70
2022/01/25 08:28:30;;;;;;;75.10;34.45;;;;;;;;;;5109028;28;20265;-69
2022/01/25 08:30:56;;;;;;;70.57;35.47;;;;;;;;;;5077092;28;20534;-68
2022/01/25 08:33:22;;;;;;;76.22;36.20;;;;;;;;;;5071439;28;20077;-69
2022/01/25 08:35:48;;;;;;;73.45;34.78;;;;;;;;;;5079756;28;20043;-68
2022/01/25 08:38:14;;;;;;;81.75;36.75;;;;;;;;;;5088541;28;20059;-68
2022/01/25 08:40:40;;;;;;;73.03;33.63;;;;;;;;;;5090995;28;20040;-69
2022/01/25 08:43:06;;;;;;;71.68;33.72;;;;;;;;;;5091459;28;20040;-71
2022/01/25 08:45:32;;;;;;;83.20;36.08;;;;;;;;;;5076263;28;20035;-68
2022/01/25 08:47:58;;;;;;;78.88;36.22;;;;;;;;;;5076467;28;20036;-68
2022/01/25 08:50:25;;;;;;;71.78;35.05;;;;;;;;;;5087876;28;20046;-67
2022/01/25 08:52:51;;;;;;;72.15;35.13;;;;;;;;;;5091375;28;20122;-70
2022/01/25 08:55:17;;;;;;;68.68;33.42;;;;;;;;;;5091235;28;20043;-69
2022/01/25 08:57:43;;;;;;;69.90;33.30;;;;;;;;;;5073461;28;20071;-68
2022/01/25 09:00:11;;;;;;;71.25;33.85;;;4.90;99.90;;;;;;5091050;28;20067;-70
2022/01/25 09:02:37;;;;;;;73.90;35.28;;;;;;;;;;5073034;28;20051;-67
2022/01/25 09:05:04;;;;;;;69.93;32.53;;;;;;;;;;5105711;28;20655;-67
2022/01/25 09:07:30;;;;;;;73.15;35.78;;;;;;;;;;5111707;28;20122;-70
2022/01/25 09:09:56;;;;;;;68.32;32.85;;;;;;;;;;5092714;28;20082;-68
2022/01/25 09:12:22;;;;;;;76.25;34.38;;;;;;;;;;5097459;28;20076;-69
2022/01/25 09:14:48;;;;;;;75.03;34.65;;;;;;;;;;5071169;28;20047;-72
2022/01/25 09:17:14;;;;;;;74.50;35.97;;;;;;;;;;5071529;28;20078;-68
2022/01/25 09:19:41;;;;;;;72.78;33.28;;;;;;;;;;5072763;28;20055;-68
2022/01/25 09:22:07;;;;;;;77.85;35.28;;;4.90;99.90;;;;;;5077148;28;20398;-68
2022/01/25 09:24:34;;;;;;;72.97;34.15;;;;;;;;;;5108172;28;20036;-67
2022/01/25 09:27:01;;;;;;;77.03;34.50;;;;;;;;;;5087595;28;20043;-67
2022/01/25 09:29:27;;;;;;;68.60;32.88;;;;;;;;;;5090744;28;20044;-68
2022/01/25 09:31:53;;;;;;;78.38;34.28;;;;;;;;;;5072623;28;20620;-69
2022/01/25 09:34:23;;;;;;;66.45;32.58;;;;;;;;;;5072830;28;20444;-67
2022/01/25 09:36:50;;;;;;;78.65;35.88;;;4.80;99.90;;;;;;5093133;28;20040;-67
2022/01/25 09:39:15;;;;;;;68.60;33.08;;;;;;;;;;5076311;28;20085;-70
2022/01/25 09:41:42;;;;;;;75.32;34.50;;;;;;;;;;5110930;23;20177;-74
2022/01/25 09:44:08;;;;;;;71.38;33.13;;;;;;;;;;5096946;28;20043;-74
2022/01/25 09:46:34;;;;;;;71.38;33.45;;;;;;;;;;5097212;28;20032;-74
2022/01/25 09:49:00;;;;;;;65.95;32.50;;;;;;;;;;5096751;28;20535;-74
2022/01/25 09:51:26;;;;;;;67.85;33.55;;;4.90;99.90;;;;;;5096709;28;20126;-74
2022/01/25 09:53:52;;;;;;;72.72;34.75;;;;;;;;;;5097222;28;20130;-73
2022/01/25 09:56:19;;;;;;;80.80;35.38;;;;;;;;;;5080126;28;20089;-74
2022/01/25 09:58:45;;;;;;;71.05;33.53;;;;;;;;;;5079939;28;20059;-74
2022/01/25 10:01:11;;;;;;;74.80;34.38;;;;;;;;;;5096556;28;20059;-74
2022/01/25 10:03:39;;;;;;;73.72;34.13;;;;;;;;;;5096783;28;20039;-74
2022/01/25 10:06:11;;;;;;;69.32;32.60;;;;;;;;;;5097216;28;20044;-74
2022/01/25 10:08:38;;;;;;;69.35;32.88;;;4.80;99.90;;;;;;5096522;28;20099;-74
2022/01/25 10:11:09;;;;;;;68.22;31.58;;;4.90;99.90;;;;;;5096357;28;20040;-73
2022/01/25 10:13:37;;;;;;;80.32;36.00;;;4.70;99.90;;;;;;5096511;28;20122;-73
2022/01/25 10:16:12;;;;;;;75.32;33.72;;;5.00;99.90;;;;;;5079727;28;20028;-74
2022/01/25 10:18:50;;;;;;;78.68;34.83;;;4.90;99.90;;;;;;5079513;28;20120;-74
2022/01/25 10:21:22;;;;;;;79.15;35.92;;;5.10;99.90;;;;;;5080974;28;20043;-74
2022/01/25 10:24:06;;;;;;;72.72;33.47;;;4.70;99.90;;;;;;5079315;28;20039;-74
2022/01/25 10:26:36;;;;;;;73.90;33.72;;;;;;;;;;5079514;28;20496;-74
2022/01/25 10:29:03;;;;;;;75.82;35.30;;;4.90;99.90;;;;;;5096257;28;20047;-74
2022/01/25 10:31:37;;;;;;;75.50;34.10;;;;;;;;;;5096050;28;20084;-74
2022/01/25 10:34:04;;;;;;;81.07;35.45;;;4.70;99.90;;;;;;5096128;28;20095;-73
2022/01/25 10:36:30;;;;;;;69.55;33.35;;;4.90;99.90;;;;;;5095980;28;20404;-74
2022/01/25 10:38:57;;;;;;;72.57;34.30;;;;;;;;;;5079125;28;20035;-74
2022/01/25 10:41:24;;;;;;;72.60;33.95;;;;;;;;;;5096013;28;20040;-73
2022/01/25 10:43:51;;;;;;;83.28;36.40;;;;;;;;;;5096344;28;20522;-74
2022/01/25 10:46:28;;;;;;;77.28;35.58;;;;;;;;;;5096355;28;20039;-75
2022/01/25 10:48:56;;;;;;;68.15;32.13;;;;;;;;;;5077826;28;20092;-75
2022/01/25 10:51:27;;;;;;;76.22;35.33;;;4.90;99.90;;;;;;5095976;28;20095;-74
2022/01/25 10:54:16;;;;;;;73.70;33.70;;;4.90;99.90;;;;;;5096380;28;20393;-77
2022/01/25 10:56:44;;;;;;;73.75;33.85;;;;;;;;;;5096212;28;20032;-74
2022/01/25 10:59:15;;;;;;;82.95;36.13;;;;;;;;;;5080188;28;20516;-74
2022/01/25 11:01:47;;;;;;;72.97;33.65;;;;;;;;;;5099792;28;20104;-74
2022/01/25 11:04:16;;;;;;;74.75;34.72;;;4.90;99.90;;;;;;5082557;28;20121;-74
2022/01/25 11:06:43;;;;;;;83.38;35.33;;;;;;;;;;5099641;28;20501;-74
2022/01/25 11:09:10;;;;;;;70.90;32.72;;;;;;;;;;5098812;28;20039;-75
2022/01/25 11:11:40;;;;;;;77.18;34.15;;;;;;;;;;5099537;28;20082;-75
2022/01/25 11:16:53;;;;;;;74.72;34.97;;;;;;;;;;5100113;28;20048;-74
2022/01/25 11:19:20;;;;;;;75.03;35.40;;;5.10;99.90;;;;;;5096815;28;20038;-74
2022/01/25 11:21:47;;;;;;;82.38;38.05;;;5.00;99.90;;;;;;5079630;28;20042;-73
2022/01/25 11:24:14;;;;;;;80.28;37.40;;;;;;;;;;5098175;28;20044;-75
2022/01/25 11:26:44;;;;;;;73.68;34.15;;;4.80;99.90;;;;;;5092556;28;20042;-74
2022/01/25 11:29:10;;;;;;;81.82;36.72;;;;;;;;;;5058922;28;20443;-74
2022/01/25 11:31:41;;;;;;;82.18;35.90;;;;;;;;;;5074765;28;20044;-74
2022/01/25 11:34:09;;;;;;;73.88;34.72;;;;;;;;;;5058007;28;20414;-73
2022/01/25 11:36:46;;;;;;;72.50;33.10;;;;;;;;;;5057944;28;20119;-74
2022/01/25 11:39:12;;;;;;;80.78;35.83;;;;;;;;;;5057907;28;20040;-74
2022/01/25 11:41:42;;;;;;;78.40;35.38;;;;;;;;;;5058138;28;20071;-74
2022/01/25 11:44:08;;;;;;;83.43;38.47;;;;;;;;;;5064053;28;20108;-74
2022/01/25 11:46:35;;;;;;;75.60;35.85;;;5.00;99.90;;;;;;5076465;28;20535;-73
2022/01/25 11:49:05;;;;;;;80.93;35.38;;;4.90;99.90;;;;;;5073565;28;20043;-73
2022/01/25 11:51:32;;;;;;;80.53;36.28;;;4.90;99.90;;;;;;5094510;28;20047;-75
2022/01/25 11:54:04;;;;;;;76.30;35.13;;;5.00;99.90;;;;;;5094748;28;20046;-75
2022/01/25 11:56:30;;;;;;;74.85;33.60;;;;;;;;;;5095542;28;20046;-76
2022/01/25 11:58:57;;;;;;;78.65;36.97;;;;;;;;;;5077596;28;20123;-75
2022/01/25 12:01:25;;;;;;;78.90;36.75;;;5.10;99.90;;;;;;5089071;28;20051;-74
2022/01/25 12:04:06;;;;;;;78.47;36.03;;;5.00;99.90;;;;;;5081547;28;20048;-75
2022/01/25 12:06:37;;;;;;;75.72;34.80;;;;;;;;;;5091423;28;20040;-75
2022/01/25 12:09:15;;;;;;;89.20;38.35;;;;;;;;;;5090993;28;20055;-76
2022/01/25 12:11:58;;;;;;;76.65;34.95;;;5.00;99.90;;;;;;5091669;28;20059;-77
2022/01/25 12:14:43;;;;;;;84.40;36.80;;;;;;;;;;5081227;28;20031;-75
2022/01/25 12:17:12;;;;;;;81.50;37.65;;;;;;;;;;5097724;28;20040;-76
2022/01/25 12:19:53;;;;;;;78.78;36.47;;;;;;;;;;5072895;28;20032;-76
2022/01/25 12:22:39;;;;;;;88.88;37.15;;;;;;;;;;5084298;28;20043;-76
2022/01/25 12:25:30;;;;;;;79.20;35.70;;;5.20;99.90;;;;;;5093267;28;20044;-77
2022/01/25 12:27:59;;;;;;;74.55;33.88;;;5.10;99.90;;;;;;5080932;28;20039;-76
2022/01/25 12:30:32;;;;;;;80.03;34.95;;;;;;;;;;5056968;28;20047;-76
2022/01/25 12:33:08;;;;;;;78.38;36.17;;;4.90;99.90;;;;;;5073812;28;20063;-75
2022/01/25 12:35:59;;;;;;;76.20;36.17;;;5.00;99.90;;;;;;5078186;28;20067;-76
2022/01/25 12:38:26;;;;;;;71.50;33.90;;;;;;;;;;5094122;28;20047;-76
2022/01/25 12:40:55;;;;;;;77.07;36.95;;;;;;;;;;5093768;28;20506;-76
2022/01/25 12:43:24;;;;;;;84.53;37.10;;;5.00;99.90;;;;;;5094174;28;20035;-75
2022/01/25 12:45:50;;;;;;;81.38;37.17;;;;;;;;;;5093810;28;20565;-76
2022/01/25 12:48:24;;;;;;;76.85;36.58;;;5.00;99.90;;;;;;5093913;28;20035;-76
2022/01/25 12:50:53;;;;;;;75.57;36.50;;;5.10;99.90;;;;;;5093962;28;20058;-76
2022/01/25 12:53:23;;;;;;;81.35;37.13;;;5.00;99.90;;;;;;5095127;28;20039;-77
2022/01/25 12:55:52;;;;;;;83.03;35.92;;;5.10;99.90;;;;;;5078364;28;20039;-76
2022/01/25 12:58:20;;;;;;;77.07;35.85;;;;;;;;;;5077070;28;20035;-75
2022/01/25 13:00:48;;;;;;;78.55;36.30;;;5.10;99.90;;;;;;5074425;28;20386;-74
2022/01/25 13:03:17;;;;;;;80.70;38.13;;;4.90;99.90;;;;;;5073607;28;20050;-75
2022/01/25 13:05:55;;;;;;;78.50;35.90;;;5.00;99.90;;;;;;5073682;28;20036;-75
2022/01/25 13:08:27;;;;;;;78.35;36.45;;;5.20;99.90;;;;;;5073628;28;20078;-75
2022/01/25 13:10:56;;;;;;;79.93;37.13;;;;;;;;;;5057093;28;20083;-75
2022/01/25 13:13:44;;;;;;;83.47;36.72;;;5.10;99.90;;;;;;5077895;28;20047;-75
2022/01/25 13:16:10;;;;;;;77.85;36.22;;;;;;;;;;5077769;28;20405;-75
2022/01/25 13:18:40;;;;;;;74.55;35.42;;;5.10;99.90;;;;;;5077444;28;20032;-76
2022/01/25 13:21:09;;;;;;;89.82;36.47;;;;;;;;;;5076916;28;20119;-74
2022/01/25 13:23:49;;;;;;;82.07;37.05;;;5.00;99.90;;;;;;5077407;28;20218;-75
2022/01/25 13:26:16;;;;;;;79.28;35.20;;;;;;;;;;5077377;28;20079;-75
2022/01/25 13:31:13;;;;;;;78.72;36.83;;;;;;;;;;5097419;28;20123;-76
2022/01/25 13:33:39;;;;;;;74.28;34.33;;;4.90;99.90;;;;;;5097490;28;20131;-76
2022/01/25 13:36:08;;;;;;;75.40;35.67;;;5.10;99.90;;;;;;5080866;28;20040;-77
2022/01/25 13:38:36;;;;;;;86.97;37.40;;;4.80;99.90;;;;;;5080402;28;20046;-77
2022/01/25 13:46:16;;;;;;;80.75;36.72;;;5.00;99.90;;;;;;5097333;28;20048;-76
2022/01/25 13:48:43;;;;;;;86.10;36.58;;;4.80;99.90;;;;;;5097090;28;20035;-77
2022/01/25 13:51:10;;;;;;;76.18;35.53;;;;;;;;;;5079752;28;20071;-78
2022/01/25 13:53:37;;;;;;;79.15;35.83;;;4.80;99.90;;;;;;5080123;28;20088;-76
2022/01/25 13:56:04;;;;;;;82.70;36.40;;;;;;;;;;5094096;28;20374;-76
2022/01/25 13:58:34;;;;;;;83.43;35.40;;;;;;;;;;5094430;28;20100;-76
2022/01/25 14:01:03;;;;;;;72.88;34.10;;;4.90;99.90;;;;;;5079674;28;20043;-76
2022/01/25 14:03:30;;;;;;;83.22;35.88;;;;;;;;;;5097116;28;20405;-75
2022/01/25 14:05:57;;;;;;;78.82;34.50;;;;;;;;;;5096727;28;20443;-76
2022/01/25 14:08:33;;;;;;;81.70;36.05;;;4.70;99.90;;;;;;5097086;28;20032;-77
2022/01/25 14:11:02;;;;;;;78.85;35.17;;;;;;;;;;5079537;28;20040;-75
2022/01/25 14:21:58;;;;;;;81.93;36.22;;;;;;;;;;5096421;28;20408;-76
2022/01/25 14:24:31;;;;;;;81.75;35.97;;;;;;;;;;5096678;28;20047;-76
2022/01/25 14:26:58;;;;;;;83.13;34.67;;;;;;;;;;5091232;28;20044;-77
2022/01/25 14:29:24;;;;;;;89.22;36.83;;;;;;;;;;5064619;28;20085;-75
2022/01/25 14:31:51;;;;;;;80.47;34.20;;;;;;;;;;5078301;28;20409;-75
2022/01/25 14:34:18;;;;;;;78.90;34.95;;;4.70;99.90;;;;;;5096335;28;20040;-75
2022/01/25 14:36:47;;;;;;;86.03;36.40;;;;;;;;;;5078658;28;20054;-75
2022/01/25 14:39:15;;;;;;;80.55;37.90;;;4.60;99.90;;;;;;5095960;28;20043;-75
2022/01/25 14:41:41;;;;;;;78.68;35.53;;;;;;;;;;5079420;28;20366;-75
2022/01/25 14:44:08;;;;;;;80.55;35.78;;;;;;;;;;5079147;28;20420;-75
2022/01/25 14:46:46;;;;;;;73.32;33.22;;;4.80;99.90;;;;;;5095446;28;20042;-75
2022/01/25 14:49:20;;;;;;;90.85;37.97;;;4.90;99.90;;;;;;5078741;28;20046;-75
2022/01/25 14:51:47;;;;;;;83.88;36.10;;;4.70;99.90;;;;;;5079195;28;20042;-75
2022/01/25 14:54:13;;;;;;;81.63;36.40;;;;;;;;;;5096332;28;20097;-76
2022/01/25 14:56:49;;;;;;;82.45;35.45;;;;;;;;;;5079302;28;20504;-75
2022/01/25 14:59:25;;;;;;;86.25;38.38;;;4.70;99.90;;;;;;5089368;28;20040;-75
2022/01/25 15:02:06;;;;;;;87.28;36.50;;;4.80;99.90;;;;;;5079130;28;20042;-75
2022/01/25 15:04:37;;;;;;;88.95;36.22;;;;;;;;;;5079392;28;20050;-76
2022/01/25 15:07:08;;;;;;;82.88;37.17;;;4.60;99.90;;;;;;5096034;28;20104;-75
2022/01/25 15:09:34;;;;;;;89.80;39.83;;;;;;;;;;5095199;28;20051;-74
2022/01/25 15:12:00;;;;;;;90.10;38.22;;;;;;;;;;5096028;28;20040;-75
2022/01/25 15:14:36;;;;;;;84.72;36.28;;;;;;;;;;5078592;28;20039;-75
2022/01/25 15:17:02;;;;;;;93.72;37.25;;;4.60;99.90;;;;;;5078407;28;20038;-76
2022/01/25 15:19:28;;;;;;;90.32;38.63;;;;;;;;;;5094988;28;20046;-75
2022/01/25 15:21:54;;;;;;;87.32;37.75;;;;;;;;;;5095346;28;20039;-75
2022/01/25 15:24:23;;;;;;;89.68;36.80;;;;;;;;;;5095594;28;20138;-75
2022/01/25 15:26:53;;;;;;;90.05;38.53;;;;;;;;;;5074487;28;20074;-76
2022/01/25 15:29:23;;;;;;;87.72;36.75;;;;;;;;;;5074952;28;20052;-75
2022/01/25 15:31:51;;;;;;;97.95;39.30;;;4.70;99.90;;;;;;5058690;28;20047;-76
2022/01/25 15:34:18;;;;;;;85.25;36.15;;;;;;;;;;5057828;28;20393;-76
2022/01/25 15:36:44;;;;;;;94.25;38.22;;;;;;;;;;5075147;28;20040;-75
2022/01/25 15:39:11;;;;;;;92.32;37.95;;;4.60;99.90;;;;;;5057927;28;20032;-75
2022/01/25 15:41:37;;;;;;;83.53;35.65;;;;;;;;;;5103612;23;20461;-66
2022/01/25 15:44:04;;;;;;;94.47;37.95;;;4.50;99.90;;;;;;5094301;28;20509;-67
2022/01/25 15:46:34;;;;;;;86.65;35.28;;;;;;;;;;5112831;28;20047;-67
2022/01/25 15:49:01;;;;;;;88.45;37.30;;;;;;;;;;5094146;28;20039;-70
2022/01/25 15:51:27;;;;;;;87.47;35.70;;;;;;;;;;5077544;28;20111;-70
2022/01/25 15:53:53;;;;;;;90.38;38.35;;;;;;;;;;5077280;28;20108;-67
2022/01/25 15:56:19;;;;;;;93.30;37.45;;;;;;;;;;5094032;28;20104;-66